createdAt,value
2022-08-20T00:00:26.831Z,66.77
2022-08-20T00:03:07.746Z,66.71
2022-08-20T00:05:36.859Z,67.08
2022-08-20T00:08:08.080Z,68.88
2022-08-20T00:10:39.385Z,69.83
2022-08-20T00:13:08.378Z,70.98
2022-08-20T00:15:38.290Z,68.36
2022-08-20T00:18:08.675Z,68.51
2022-08-20T00:20:38.255Z,69.25
2022-08-20T00:23:13.492Z,69.27
2022-08-20T00:25:41.241Z,68.68
2022-08-20T00:28:15.512Z,72.11
2022-08-20T00:30:46.855Z,69.09
2022-08-20T00:33:20.096Z,68.68
2022-08-20T00:35:52.722Z,70.98
2022-08-20T00:38:19.984Z,70.60
2022-08-20T00:40:48.750Z,73.87
2022-08-20T00:43:30.696Z,69.25
2022-08-20T00:46:00.427Z,69.62
2022-08-20T00:48:31.921Z,70.24
2022-08-20T00:51:05.190Z,68.60
2022-08-20T00:53:35.213Z,68.89
2022-08-20T00:56:09.776Z,69.99
2022-08-20T00:58:39.243Z,69.58
2022-08-20T01:01:07.134Z,68.55
2022-08-20T01:03:35.987Z,69.70
2022-08-20T01:06:03.070Z,70.63
2022-08-20T01:08:29.834Z,71.54
2022-08-20T01:11:10.095Z,70.97
2022-08-20T01:13:43.769Z,70.93
2022-08-20T01:16:17.999Z,72.54
2022-08-20T01:18:47.809Z,73.16
2022-08-20T01:21:16.450Z,71.57
2022-08-20T01:23:55.871Z,71.79
2022-08-20T01:26:32.042Z,73.06
2022-08-20T01:29:05.975Z,73.82
2022-08-20T01:31:37.326Z,70.78
2022-08-20T01:34:06.824Z,71.68
2022-08-20T01:36:36.096Z,72.29
2022-08-20T01:39:04.178Z,70.96
2022-08-20T01:41:39.078Z,71.36
2022-08-20T01:44:05.808Z,70.31
2022-08-20T01:46:44.013Z,72.16
2022-08-20T01:49:13.777Z,72.26
2022-08-20T01:51:53.827Z,71.09
2022-08-20T01:54:21.397Z,72.38
2022-08-20T01:57:06.337Z,70.73
2022-08-20T01:59:38.107Z,70.20
2022-08-20T02:02:09.867Z,69.89
2022-08-20T02:04:42.602Z,70.70
2022-08-20T02:07:14.255Z,68.39
2022-08-20T02:09:45.471Z,70.46
2022-08-20T02:12:16.974Z,70.47
2022-08-20T02:14:49.285Z,70.15
2022-08-20T02:17:17.997Z,71.49
2022-08-20T02:20:00.319Z,70.42
2022-08-20T02:22:28.040Z,70.56
2022-08-20T02:25:02.044Z,71.03
2022-08-20T02:27:33.786Z,71.23
2022-08-20T02:30:06.712Z,70.18
2022-08-20T02:32:35.691Z,70.65
2022-08-20T02:35:05.326Z,70.59
2022-08-20T02:37:32.137Z,70.88
2022-08-20T02:39:59.135Z,73.03
2022-08-20T02:42:26.375Z,73.71
2022-08-20T02:44:54.544Z,73.15
2022-08-20T02:47:21.307Z,71.26
2022-08-20T02:49:53.803Z,72.36
2022-08-20T02:52:20.925Z,71.54
2022-08-20T02:54:50.015Z,71.41
2022-08-20T02:57:23.563Z,71.29
2022-08-20T02:59:53.852Z,71.01
2022-08-20T03:02:21.158Z,72.25
2022-08-20T03:04:52.086Z,71.68
2022-08-20T03:07:22.204Z,71.82
2022-08-20T03:09:50.828Z,71.37
2022-08-20T03:12:24.191Z,71.31
2022-08-20T03:14:51.488Z,71.86
2022-08-20T03:17:19.405Z,70.91
2022-08-20T03:19:46.140Z,71.50
2022-08-20T03:22:14.089Z,72.41
2022-08-20T03:24:43.967Z,71.84
2022-08-20T03:27:12.861Z,72.39
2022-08-20T03:29:42.901Z,72.16
2022-08-20T03:32:14.527Z,72.50
2022-08-20T03:34:41.294Z,73.51
2022-08-20T03:37:08.470Z,72.38
2022-08-20T03:39:38.602Z,71.76
2022-08-20T03:42:06.630Z,72.09
2022-08-20T03:44:36.565Z,73.16
2022-08-20T03:47:07.347Z,74.75
2022-08-20T03:49:38.908Z,73.77
2022-08-20T03:52:07.930Z,74.01
2022-08-20T03:54:34.928Z,73.28
2022-08-20T03:57:02.507Z,74.30
2022-08-20T03:59:32.525Z,74.34
2022-08-20T04:02:03.867Z,73.18
2022-08-20T04:04:30.744Z,72.74
2022-08-20T04:06:59.666Z,72.00
2022-08-20T04:09:26.387Z,71.86
2022-08-20T04:12:00.757Z,71.44
2022-08-20T04:14:29.335Z,71.24
2022-08-20T04:17:06.643Z,71.89
2022-08-20T04:19:34.405Z,72.81
2022-08-20T04:22:01.178Z,73.62
2022-08-20T04:24:32.398Z,72.76
2022-08-20T04:27:05.876Z,71.05
2022-08-20T04:29:33.680Z,71.37
2022-08-20T04:32:05.779Z,72.08
2022-08-20T04:34:33.106Z,72.09
2022-08-20T04:36:59.804Z,73.07
2022-08-20T04:39:27.779Z,71.99
2022-08-20T04:41:54.628Z,72.04
2022-08-20T04:44:22.275Z,71.43
2022-08-20T04:46:54.544Z,71.96
2022-08-20T04:49:25.934Z,72.51
2022-08-20T04:51:57.333Z,71.92
2022-08-20T04:54:27.303Z,71.29
2022-08-20T04:56:56.866Z,71.17
2022-08-20T04:59:26.518Z,70.81
2022-08-20T05:01:54.709Z,70.79
2022-08-20T05:04:21.539Z,70.72
2022-08-20T05:06:49.395Z,70.55
2022-08-20T05:09:21.014Z,69.57
2022-08-20T05:11:49.956Z,69.93
2022-08-20T05:14:16.743Z,69.41
2022-08-20T05:16:43.487Z,69.54
2022-08-20T05:19:11.510Z,69.82
2022-08-20T05:21:40.229Z,68.84
2022-08-20T05:24:10.258Z,67.89
2022-08-20T05:26:37.029Z,67.73
2022-08-20T05:29:06.383Z,67.14
2022-08-20T05:31:44.717Z,66.42
2022-08-20T05:34:17.133Z,65.81
2022-08-20T05:36:49.173Z,65.38
2022-08-20T05:39:27.447Z,64.87
2022-08-20T05:41:54.488Z,63.88
2022-08-20T05:44:22.949Z,63.30
2022-08-20T05:46:52.738Z,63.83
2022-08-20T05:49:27.139Z,62.97
2022-08-20T05:51:53.942Z,62.04
2022-08-20T05:54:28.532Z,61.51
2022-08-20T05:56:58.843Z,60.64
2022-08-20T05:59:27.082Z,61.71
2022-08-20T06:01:53.793Z,59.89
2022-08-20T06:04:34.157Z,58.63
2022-08-20T06:07:21.262Z,59.67
2022-08-20T06:09:53.375Z,59.56
2022-08-20T06:12:26.284Z,58.75
2022-08-20T06:14:57.049Z,56.97
2022-08-20T06:17:34.823Z,56.15
2022-08-20T06:20:08.718Z,55.80
2022-08-20T06:22:42.876Z,55.24
2022-08-20T06:25:10.939Z,50.95
2022-08-20T06:27:43.533Z,52.27
2022-08-20T06:30:11.521Z,49.88
2022-08-20T06:32:41.180Z,47.76
2022-08-20T06:35:11.161Z,49.57
2022-08-20T06:37:39.754Z,48.26
2022-08-20T06:40:12.789Z,44.66
2022-08-20T06:42:47.774Z,41.28
2022-08-20T06:45:18.217Z,40.72
2022-08-20T06:47:52.029Z,40.43
2022-08-20T06:50:24.727Z,39.97
2022-08-20T06:53:00.377Z,38.58
2022-08-20T06:55:32.435Z,37.42
2022-08-20T06:58:00.877Z,35.69
2022-08-20T07:00:41.862Z,36.15
2022-08-20T07:03:10.092Z,35.17
2022-08-20T07:05:47.543Z,35.12
2022-08-20T07:08:16.048Z,34.25
2022-08-20T07:10:49.129Z,33.66
2022-08-20T07:13:16.522Z,32.95
2022-08-20T07:15:43.811Z,32.49
2022-08-20T07:18:16.748Z,33.10
2022-08-20T07:21:10.031Z,32.47
2022-08-20T07:23:47.609Z,31.76
2022-08-20T07:26:24.936Z,32.57
2022-08-20T07:28:59.041Z,33.54
2022-08-20T07:31:48.177Z,32.01
2022-08-20T07:34:21.814Z,31.35
2022-08-20T07:36:49.678Z,31.64
2022-08-20T07:39:18.670Z,31.95
2022-08-20T07:42:13.598Z,31.24
2022-08-20T07:44:41.775Z,30.40
2022-08-20T07:47:13.226Z,30.39
2022-08-20T07:49:44.085Z,29.59
2022-08-20T07:52:16.966Z,30.03
2022-08-20T07:54:51.724Z,29.99
2022-08-20T07:57:25.666Z,30.47
2022-08-20T08:00:00.056Z,30.17
2022-08-20T08:02:27.704Z,29.57
2022-08-20T08:04:57.453Z,30.29
2022-08-20T08:07:25.952Z,29.63
2022-08-20T08:09:59.383Z,29.58
2022-08-20T08:12:36.143Z,29.57
2022-08-20T08:15:14.772Z,29.65
2022-08-20T08:17:48.767Z,29.40
2022-08-20T08:20:22.893Z,29.86
2022-08-20T08:22:50.314Z,29.05
2022-08-20T08:25:17.115Z,29.01
2022-08-20T08:27:48.283Z,28.88
2022-08-20T08:30:17.204Z,29.13
2022-08-20T08:33:03.459Z,28.70
2022-08-20T08:35:35.664Z,29.38
2022-08-20T08:38:02.624Z,28.78
2022-08-20T08:40:31.862Z,28.58
2022-08-20T08:43:02.655Z,27.43
2022-08-20T08:45:49.070Z,26.74
2022-08-20T08:48:18.679Z,26.04
2022-08-20T08:50:54.646Z,26.91
2022-08-20T08:53:28.469Z,27.01
2022-08-20T08:55:56.983Z,26.19
2022-08-20T08:58:23.821Z,26.47
2022-08-20T09:00:57.573Z,26.53
2022-08-20T09:03:39.579Z,26.64
2022-08-20T09:06:07.329Z,26.09
2022-08-20T09:08:42.781Z,26.47
2022-08-20T09:11:15.515Z,26.27
2022-08-20T09:13:50.689Z,26.78
2022-08-20T09:16:52.044Z,26.86
2022-08-20T09:19:25.806Z,26.49
2022-08-20T09:21:52.964Z,26.33
2022-08-20T09:24:19.884Z,25.69
2022-08-20T09:26:50.474Z,25.73
2022-08-20T09:29:20.620Z,25.88
2022-08-20T09:32:16.213Z,25.86
2022-08-20T09:34:47.420Z,25.79
2022-08-20T09:37:20.183Z,25.06
2022-08-20T09:39:48.611Z,24.88
2022-08-20T09:42:21.506Z,24.98
2022-08-20T09:44:48.364Z,25.09
2022-08-20T09:47:19.566Z,24.68
2022-08-20T09:49:49.023Z,24.64
2022-08-20T09:52:22.284Z,24.47
2022-08-20T09:54:55.458Z,24.51
2022-08-20T09:57:31.223Z,24.06
2022-08-20T10:00:11.268Z,23.83
2022-08-20T10:02:40.983Z,23.70
2022-08-20T10:05:12.399Z,23.63
2022-08-20T10:07:44.152Z,23.56
2022-08-20T10:10:15.895Z,23.93
2022-08-20T10:12:42.909Z,23.66
2022-08-20T10:15:13.934Z,23.57
2022-08-20T10:17:46.349Z,23.30
2022-08-20T10:20:14.293Z,23.40
2022-08-20T10:22:42.291Z,23.39
2022-08-20T10:25:12.832Z,22.77
2022-08-20T10:27:47.154Z,22.65
2022-08-20T10:30:16.630Z,22.63
2022-08-20T10:32:46.018Z,23.23
2022-08-20T10:35:15.210Z,23.09
2022-08-20T10:37:46.476Z,23.59
2022-08-20T10:40:15.525Z,22.96
2022-08-20T10:42:53.880Z,22.55
2022-08-20T10:45:35.253Z,22.52
2022-08-20T10:48:08.377Z,22.82
2022-08-20T10:50:37.882Z,23.03
2022-08-20T10:53:06.805Z,22.33
2022-08-20T10:55:37.249Z,22.59
2022-08-20T10:58:07.698Z,22.75
2022-08-20T11:00:45.614Z,23.37
2022-08-20T11:03:12.818Z,23.67
2022-08-20T11:05:39.654Z,23.71
2022-08-20T11:08:06.786Z,23.66
2022-08-20T11:10:37.812Z,23.85
2022-08-20T11:13:07.449Z,24.09
2022-08-20T11:15:36.662Z,24.23
2022-08-20T11:18:04.590Z,24.07
2022-08-20T11:20:31.823Z,24.30
2022-08-20T11:23:03.010Z,24.79
2022-08-20T11:25:37.055Z,24.89
2022-08-20T11:28:04.668Z,25.09
2022-08-20T11:30:41.221Z,25.17
2022-08-20T11:33:30.034Z,25.58
2022-08-20T11:35:57.034Z,25.70
2022-08-20T11:38:28.741Z,25.92
2022-08-20T11:40:59.951Z,25.99
2022-08-20T11:43:26.787Z,26.04
2022-08-20T11:45:54.895Z,26.37
2022-08-20T11:48:27.378Z,26.29
2022-08-20T11:50:59.183Z,25.97
2022-08-20T11:53:33.823Z,25.86
2022-08-20T11:56:02.810Z,25.81
2022-08-20T11:58:33.891Z,25.55
2022-08-20T12:01:06.876Z,25.89
2022-08-20T12:03:33.826Z,25.73
2022-08-20T12:06:00.673Z,25.69
2022-08-20T12:08:29.033Z,25.57
2022-08-20T12:10:57.365Z,25.73
2022-08-20T12:13:30.413Z,26.10
2022-08-20T12:16:01.972Z,26.24
2022-08-20T12:18:33.362Z,26.39
2022-08-20T12:21:04.365Z,26.71
2022-08-20T12:23:34.678Z,27.00
2022-08-20T12:26:02.847Z,26.90
2022-08-20T12:28:30.399Z,26.91
2022-08-20T12:30:57.553Z,27.18
2022-08-20T12:33:31.825Z,27.41
2022-08-20T12:36:01.151Z,27.57
2022-08-20T12:38:28.186Z,28.00
2022-08-20T12:40:56.032Z,27.79
2022-08-20T12:43:26.102Z,27.86
2022-08-20T12:45:52.938Z,28.04
2022-08-20T12:48:21.837Z,27.93
2022-08-20T12:50:53.145Z,27.77
2022-08-20T12:53:20.192Z,28.16
2022-08-20T12:55:47.115Z,28.26
2022-08-20T12:58:19.839Z,28.59
2022-08-20T13:00:51.226Z,28.62
2022-08-20T13:03:28.476Z,28.51
2022-08-20T13:06:05.246Z,28.00
2022-08-20T13:08:36.447Z,28.23
2022-08-20T13:11:09.355Z,28.40
2022-08-20T13:13:40.773Z,28.33
2022-08-20T13:16:10.406Z,28.26
2022-08-20T13:18:41.255Z,28.21
2022-08-20T13:21:15.552Z,28.68
2022-08-20T13:23:43.781Z,28.90
2022-08-20T13:26:11.089Z,29.11
2022-08-20T13:28:41.594Z,29.46
2022-08-20T13:31:14.315Z,29.38
2022-08-20T13:33:44.277Z,29.31
2022-08-20T13:36:16.436Z,29.22
2022-08-20T13:38:47.574Z,28.93
2022-08-20T13:41:32.509Z,28.88
2022-08-20T13:43:59.347Z,29.17
2022-08-20T13:46:28.557Z,29.48
2022-08-20T13:48:57.522Z,28.95
2022-08-20T13:51:24.331Z,29.13
2022-08-20T13:53:55.118Z,29.26
2022-08-20T13:56:26.542Z,29.69
2022-08-20T13:59:04.311Z,30.14
2022-08-20T14:01:40.843Z,30.13
2022-08-20T14:04:13.939Z,29.21
2022-08-20T14:06:49.558Z,29.39
2022-08-20T14:09:19.807Z,29.54
2022-08-20T14:11:50.054Z,29.35
2022-08-20T14:14:24.480Z,29.21
2022-08-20T14:16:57.826Z,29.30
2022-08-20T14:19:28.595Z,29.12
2022-08-20T14:21:56.668Z,29.04
2022-08-20T14:24:28.548Z,29.11
2022-08-20T14:27:08.924Z,29.68
2022-08-20T14:29:42.702Z,30.05
2022-08-20T14:32:12.245Z,29.77
2022-08-20T14:34:39.500Z,29.97
2022-08-20T14:37:14.343Z,30.15
2022-08-20T14:39:41.595Z,30.11
2022-08-20T14:42:11.728Z,29.80
2022-08-20T14:44:38.679Z,29.89
2022-08-20T14:47:18.559Z,29.92
2022-08-20T14:49:48.553Z,29.88
2022-08-20T14:52:20.834Z,30.13
2022-08-20T14:54:51.587Z,29.70
2022-08-20T14:57:19.060Z,30.00
2022-08-20T14:59:46.244Z,29.81
2022-08-20T15:02:14.460Z,29.72
2022-08-20T15:04:44.959Z,30.40
2022-08-20T15:07:27.796Z,30.73
2022-08-20T15:09:57.662Z,30.73
2022-08-20T15:12:24.407Z,31.05
2022-08-20T15:14:51.205Z,31.14
2022-08-20T15:17:23.884Z,31.95
2022-08-20T15:19:50.733Z,31.82
2022-08-20T15:22:21.961Z,32.03
2022-08-20T15:24:49.012Z,31.98
2022-08-20T15:27:22.244Z,31.95
2022-08-20T15:29:54.411Z,32.11
2022-08-20T15:32:21.620Z,32.05
2022-08-20T15:34:48.773Z,32.01
2022-08-20T15:37:22.773Z,32.21
2022-08-20T15:39:50.453Z,32.51
2022-08-20T15:42:18.711Z,32.57
2022-08-20T15:44:48.275Z,32.48
2022-08-20T15:47:22.800Z,32.82
2022-08-20T15:49:57.348Z,33.24
2022-08-20T15:52:32.873Z,33.45
2022-08-20T15:55:05.419Z,33.85
2022-08-20T15:57:43.557Z,34.15
2022-08-20T16:00:31.779Z,34.32
2022-08-20T16:03:07.484Z,33.97
2022-08-20T16:05:56.165Z,34.04
2022-08-20T16:08:48.986Z,34.29
2022-08-20T16:11:25.756Z,34.37
2022-08-20T16:14:01.878Z,34.37
2022-08-20T16:16:36.851Z,34.95
2022-08-20T16:19:11.732Z,34.56
2022-08-20T16:21:40.349Z,35.07
2022-08-20T16:24:12.776Z,34.81
2022-08-20T16:26:43.218Z,34.74
2022-08-20T16:29:18.993Z,35.04
2022-08-20T16:31:53.074Z,35.33
2022-08-20T16:34:42.910Z,35.42
2022-08-20T16:37:10.237Z,36.92
2022-08-20T16:39:43.161Z,36.93
2022-08-20T16:42:15.045Z,37.44
2022-08-20T16:44:52.212Z,37.32
2022-08-20T16:47:40.572Z,38.46
2022-08-20T16:50:16.578Z,38.67
2022-08-20T16:52:46.277Z,38.96
2022-08-20T16:55:16.849Z,39.02
2022-08-20T16:57:48.449Z,38.58
2022-08-20T17:00:25.692Z,39.42
2022-08-20T17:02:59.530Z,39.62
2022-08-20T17:05:43.195Z,39.29
2022-08-20T17:08:16.446Z,39.89
2022-08-20T17:11:00.344Z,39.88
2022-08-20T17:13:29.597Z,40.14
2022-08-20T17:15:59.993Z,39.63
2022-08-20T17:18:31.743Z,39.57
2022-08-20T17:21:22.886Z,39.66
2022-08-20T17:23:56.676Z,40.76
2022-08-20T17:26:36.629Z,40.28
2022-08-20T17:29:13.002Z,40.29
2022-08-20T17:31:41.894Z,41.52
2022-08-20T17:34:32.698Z,41.65
2022-08-20T17:37:08.520Z,41.77
2022-08-20T17:39:46.375Z,40.82
2022-08-20T17:42:18.378Z,41.47
2022-08-20T17:44:55.149Z,41.75
2022-08-20T17:47:30.224Z,41.96
2022-08-20T17:50:04.968Z,43.08
2022-08-20T17:52:42.194Z,42.00
2022-08-20T17:55:10.213Z,41.95
2022-08-20T17:57:39.146Z,43.21
2022-08-20T18:00:15.527Z,42.63
2022-08-20T18:02:42.990Z,42.41
2022-08-20T18:05:15.849Z,43.40
2022-08-20T18:07:57.699Z,44.21
2022-08-20T18:10:26.554Z,44.01
2022-08-20T18:13:11.869Z,44.80
2022-08-20T18:15:57.607Z,43.83
2022-08-20T18:18:56.704Z,43.85
2022-08-20T18:21:43.163Z,45.47
2022-08-20T18:24:18.346Z,46.28
2022-08-20T18:27:02.092Z,47.50
2022-08-20T18:29:34.836Z,47.05
2022-08-20T18:32:05.020Z,46.85
2022-08-20T18:34:31.837Z,46.56
2022-08-20T18:37:03.921Z,46.48
2022-08-20T18:39:32.464Z,47.58
2022-08-20T18:42:10.706Z,48.72
2022-08-20T18:44:44.691Z,48.89
2022-08-20T18:47:35.427Z,48.97
2022-08-20T18:50:04.907Z,48.94
2022-08-20T18:52:36.964Z,46.92
2022-08-20T18:55:06.334Z,48.32
2022-08-20T18:57:52.024Z,47.80
2022-08-20T19:00:24.625Z,48.83
2022-08-20T19:03:05.470Z,49.68
2022-08-20T19:05:38.052Z,51.17
2022-08-20T19:08:11.158Z,51.55
2022-08-20T19:10:47.785Z,52.03
2022-08-20T19:13:36.319Z,51.78
2022-08-20T19:16:12.621Z,52.30
2022-08-20T19:18:46.520Z,52.91
2022-08-20T19:21:15.900Z,52.84
2022-08-20T19:23:56.668Z,50.59
2022-08-20T19:26:32.939Z,52.61
2022-08-20T19:29:27.586Z,52.47
2022-08-20T19:32:05.561Z,50.72
2022-08-20T19:34:32.747Z,49.81
2022-08-20T19:37:27.513Z,49.15
2022-08-20T19:39:52.864Z,49.34
2022-08-20T19:42:25.749Z,49.42
2022-08-20T19:45:01.293Z,49.69
2022-08-20T19:47:36.084Z,49.07
2022-08-20T19:50:11.515Z,48.17
2022-08-20T19:52:48.055Z,47.55
2022-08-20T19:55:18.114Z,47.35
2022-08-20T19:57:52.940Z,47.26
2022-08-20T20:00:24.783Z,48.14
2022-08-20T20:02:53.622Z,47.76
2022-08-20T20:05:25.410Z,48.03
2022-08-20T20:08:02.884Z,47.47
2022-08-20T20:10:32.839Z,47.30
2022-08-20T20:13:12.560Z,48.36
2022-08-20T20:15:40.058Z,48.40
2022-08-20T20:18:08.056Z,48.28
2022-08-20T20:20:55.920Z,47.70
2022-08-20T20:23:28.048Z,49.21
2022-08-20T20:26:16.451Z,49.05
2022-08-20T20:28:45.234Z,47.70
2022-08-20T20:31:15.237Z,48.90
2022-08-20T20:33:51.137Z,48.25
2022-08-20T20:36:30.305Z,49.08
2022-08-20T20:39:02.362Z,49.25
2022-08-20T20:41:35.068Z,49.78
2022-08-20T20:44:07.649Z,51.32
2022-08-20T20:46:35.572Z,52.47
2022-08-20T20:49:18.926Z,53.21
2022-08-20T20:51:54.389Z,52.03
2022-08-20T20:54:26.078Z,52.45
2022-08-20T20:57:15.953Z,52.54
2022-08-20T20:59:43.745Z,52.52
2022-08-20T21:02:14.725Z,51.84
2022-08-20T21:04:44.381Z,53.77
2022-08-20T21:07:14.923Z,53.08
2022-08-20T21:09:46.367Z,55.82
2022-08-20T21:12:14.136Z,55.62
2022-08-20T21:14:41.506Z,54.85
2022-08-20T21:17:13.380Z,57.02
2022-08-20T21:19:45.744Z,55.57
2022-08-20T21:25:34.337Z,57.93
2022-08-20T21:28:01.919Z,59.57
2022-08-20T21:33:34.332Z,59.22
2022-08-20T21:36:34.094Z,61.01
2022-08-20T21:39:09.148Z,58.70
2022-08-20T21:41:37.567Z,62.30
2022-08-20T21:47:41.805Z,62.19
2022-08-20T21:50:09.637Z,60.94
2022-08-20T21:52:37.557Z,60.66
2022-08-20T21:55:21.535Z,59.78
2022-08-20T21:58:16.924Z,62.07
2022-08-20T22:00:50.507Z,59.85
2022-08-20T22:03:21.820Z,60.41
2022-08-20T22:05:53.400Z,61.77
2022-08-20T22:08:20.810Z,61.15
2022-08-20T22:10:54.766Z,62.54
2022-08-20T22:13:22.566Z,64.13
2022-08-20T22:15:50.809Z,63.04
2022-08-20T22:18:19.901Z,65.58
2022-08-20T22:20:47.972Z,64.01
2022-08-20T22:23:16.158Z,62.42
2022-08-20T22:25:44.035Z,62.88
2022-08-20T22:28:16.390Z,64.27
2022-08-20T22:30:44.424Z,62.93
2022-08-20T22:33:28.204Z,63.56
2022-08-20T22:35:56.519Z,65.40
2022-08-20T22:38:27.856Z,63.09
2022-08-20T22:41:02.723Z,63.51
2022-08-20T22:43:34.483Z,65.02
2022-08-20T22:46:02.278Z,65.66
2022-08-20T22:48:30.538Z,64.86
2022-08-20T22:50:58.848Z,65.24
2022-08-20T22:53:30.706Z,64.71
2022-08-20T22:56:00.826Z,67.40
2022-08-20T22:58:33.915Z,66.47
2022-08-20T23:01:04.265Z,65.34
2022-08-20T23:03:39.992Z,67.63
2022-08-20T23:06:14.859Z,68.09
2022-08-20T23:08:47.688Z,68.16
2022-08-20T23:11:29.443Z,69.17
2022-08-20T23:14:21.983Z,71.74
2022-08-20T23:17:01.428Z,71.61
2022-08-20T23:19:32.075Z,68.12
2022-08-20T23:22:00.818Z,66.42
2022-08-20T23:28:41.668Z,66.87
2022-08-20T23:34:35.924Z,70.14
2022-08-20T23:37:04.802Z,69.42
2022-08-20T23:39:40.187Z,70.75
2022-08-20T23:42:07.977Z,68.71
2022-08-20T23:44:36.840Z,67.82
2022-08-20T23:47:05.738Z,67.18
2022-08-20T23:49:38.905Z,69.84
2022-08-20T23:52:10.504Z,67.75
2022-08-20T23:54:37.941Z,70.45
2022-08-20T23:57:10.729Z,68.05
2022-08-20T23:59:39.388Z,68.25
